sensor_id;sensor_type;location;lat;lon;timestamp;temperature;humidity
4279;DHT22;2153;47.744;10.580;2023-04-08T00:01:13;4.10;99.90
4279;DHT22;2153;47.744;10.580;2023-04-08T00:03:40;4.00;99.90
4279;DHT22;2153;47.744;10.580;2023-04-08T00:06:07;4.10;99.90
4279;DHT22;2153;47.744;10.580;2023-04-08T00:08:33;4.10;99.90
4279;DHT22;2153;47.744;10.580;2023-04-08T00:11:02;4.10;99.90
4279;DHT22;2153;47.744;10.580;2023-04-08T00:13:28;4.10;99.90
4279;DHT22;2153;47.744;10.580;2023-04-08T00:15:55;4.10;99.90
4279;DHT22;2153;47.744;10.580;2023-04-08T00:18:22;4.10;99.90
4279;DHT22;2153;47.744;10.580;2023-04-08T00:20:48;4.10;99.90
4279;DHT22;2153;47.744;10.580;2023-04-08T00:23:15;4.10;99.90
4279;DHT22;2153;47.744;10.580;2023-04-08T00:25:42;4.10;99.90
4279;DHT22;2153;47.744;10.580;2023-04-08T00:28:11;4.10;99.90
4279;DHT22;2153;47.744;10.580;2023-04-08T00:30:37;4.10;99.90
4279;DHT22;2153;47.744;10.580;2023-04-08T00:33:04;4.10;99.90
4279;DHT22;2153;47.744;10.580;2023-04-08T00:35:31;4.10;99.90
4279;DHT22;2153;47.744;10.580;2023-04-08T00:37:58;4.10;99.90
4279;DHT22;2153;47.744;10.580;2023-04-08T00:40:25;4.00;99.90
4279;DHT22;2153;47.744;10.580;2023-04-08T00:42:52;4.00;99.90
4279;DHT22;2153;47.744;10.580;2023-04-08T00:45:20;4.00;99.90
4279;DHT22;2153;47.744;10.580;2023-04-08T00:47:46;4.00;99.90
4279;DHT22;2153;47.744;10.580;2023-04-08T00:50:17;4.00;99.90
4279;DHT22;2153;47.744;10.580;2023-04-08T00:52:44;4.00;99.90
4279;DHT22;2153;47.744;10.580;2023-04-08T00:55:10;4.00;99.90
4279;DHT22;2153;47.744;10.580;2023-04-08T00:57:37;4.00;99.90
4279;DHT22;2153;47.744;10.580;2023-04-08T01:00:05;4.00;99.90
4279;DHT22;2153;47.744;10.580;2023-04-08T01:02:46;4.00;99.90
4279;DHT22;2153;47.744;10.580;2023-04-08T01:05:23;4.00;99.90
4279;DHT22;2153;47.744;10.580;2023-04-08T01:07:50;4.00;99.90
4279;DHT22;2153;47.744;10.580;2023-04-08T01:10:20;4.00;99.90
4279;DHT22;2153;47.744;10.580;2023-04-08T01:12:49;4.00;99.90
4279;DHT22;2153;47.744;10.580;2023-04-08T01:15:17;4.00;99.90
4279;DHT22;2153;47.744;10.580;2023-04-08T01:17:46;4.10;99.90
4279;DHT22;2153;47.744;10.580;2023-04-08T01:20:15;4.10;99.90
4279;DHT22;2153;47.744;10.580;2023-04-08T01:22:59;4.00;99.90
4279;DHT22;2153;47.744;10.580;2023-04-08T01:25:30;3.90;99.90
4279;DHT22;2153;47.744;10.580;2023-04-08T01:27:59;3.90;99.90
4279;DHT22;2153;47.744;10.580;2023-04-08T01:30:27;3.90;99.90
4279;DHT22;2153;47.744;10.580;2023-04-08T01:32:55;3.90;99.90
4279;DHT22;2153;47.744;10.580;2023-04-08T01:35:24;3.90;99.90
4279;DHT22;2153;47.744;10.580;2023-04-08T01:37:51;3.90;99.90
4279;DHT22;2153;47.744;10.580;2023-04-08T01:40:19;3.90;99.90
4279;DHT22;2153;47.744;10.580;2023-04-08T01:42:47;3.90;99.90
4279;DHT22;2153;47.744;10.580;2023-04-08T01:45:16;4.00;99.90
4279;DHT22;2153;47.744;10.580;2023-04-08T01:47:44;3.90;99.90
4279;DHT22;2153;47.744;10.580;2023-04-08T01:50:13;3.90;99.90
4279;DHT22;2153;47.744;10.580;2023-04-08T01:52:42;3.90;99.90
4279;DHT22;2153;47.744;10.580;2023-04-08T01:55:09;3.90;99.90
4279;DHT22;2153;47.744;10.580;2023-04-08T01:57:37;3.90;99.90
4279;DHT22;2153;47.744;10.580;2023-04-08T02:00:07;3.90;99.90
4279;DHT22;2153;47.744;10.580;2023-04-08T02:02:37;3.90;99.90
4279;DHT22;2153;47.744;10.580;2023-04-08T02:05:05;3.90;99.90
4279;DHT22;2153;47.744;10.580;2023-04-08T02:07:31;3.90;99.90
4279;DHT22;2153;47.744;10.580;2023-04-08T02:09:58;3.90;99.90
4279;DHT22;2153;47.744;10.580;2023-04-08T02:12:26;3.90;99.90
4279;DHT22;2153;47.744;10.580;2023-04-08T02:14:53;3.90;99.90
4279;DHT22;2153;47.744;10.580;2023-04-08T02:17:24;3.90;99.90
4279;DHT22;2153;47.744;10.580;2023-04-08T02:19:59;3.90;99.90
4279;DHT22;2153;47.744;10.580;2023-04-08T02:22:36;3.90;99.90
4279;DHT22;2153;47.744;10.580;2023-04-08T02:25:07;3.90;99.90
4279;DHT22;2153;47.744;10.580;2023-04-08T02:27:36;3.90;99.90
4279;DHT22;2153;47.744;10.580;2023-04-08T02:30:06;3.90;99.90
4279;DHT22;2153;47.744;10.580;2023-04-08T02:32:34;3.90;99.90
4279;DHT22;2153;47.744;10.580;2023-04-08T02:35:03;3.90;99.90
4279;DHT22;2153;47.744;10.580;2023-04-08T02:37:31;3.90;99.90
4279;DHT22;2153;47.744;10.580;2023-04-08T02:39:58;3.80;99.90
4279;DHT22;2153;47.744;10.580;2023-04-08T02:42:25;3.80;99.90
4279;DHT22;2153;47.744;10.580;2023-04-08T02:44:52;3.80;99.90
4279;DHT22;2153;47.744;10.580;2023-04-08T02:47:18;3.80;99.90
4279;DHT22;2153;47.744;10.580;2023-04-08T02:49:45;3.70;99.90
4279;DHT22;2153;47.744;10.580;2023-04-08T02:52:13;3.70;99.90
4279;DHT22;2153;47.744;10.580;2023-04-08T02:54:40;3.70;99.90
4279;DHT22;2153;47.744;10.580;2023-04-08T02:57:07;3.70;99.90
4279;DHT22;2153;47.744;10.580;2023-04-08T02:59:33;3.70;99.90
4279;DHT22;2153;47.744;10.580;2023-04-08T03:02:02;3.70;99.90
4279;DHT22;2153;47.744;10.580;2023-04-08T03:04:28;3.60;99.90
4279;DHT22;2153;47.744;10.580;2023-04-08T03:06:55;3.70;99.90
4279;DHT22;2153;47.744;10.580;2023-04-08T03:09:23;3.70;99.90
4279;DHT22;2153;47.744;10.580;2023-04-08T03:11:50;3.70;99.90
4279;DHT22;2153;47.744;10.580;2023-04-08T03:14:19;3.70;99.90
4279;DHT22;2153;47.744;10.580;2023-04-08T03:16:46;3.70;99.90
4279;DHT22;2153;47.744;10.580;2023-04-08T03:19:13;3.70;99.90
4279;DHT22;2153;47.744;10.580;2023-04-08T03:21:39;3.70;99.90
4279;DHT22;2153;47.744;10.580;2023-04-08T03:24:06;3.70;99.90
4279;DHT22;2153;47.744;10.580;2023-04-08T03:26:34;3.70;99.90
4279;DHT22;2153;47.744;10.580;2023-04-08T03:29:01;3.70;99.90
4279;DHT22;2153;47.744;10.580;2023-04-08T03:31:28;3.70;99.90
4279;DHT22;2153;47.744;10.580;2023-04-08T03:33:54;3.70;99.90
4279;DHT22;2153;47.744;10.580;2023-04-08T03:36:21;3.70;99.90
4279;DHT22;2153;47.744;10.580;2023-04-08T03:38:48;3.70;99.90
4279;DHT22;2153;47.744;10.580;2023-04-08T03:41:14;3.70;99.90
4279;DHT22;2153;47.744;10.580;2023-04-08T03:43:42;3.70;99.90
4279;DHT22;2153;47.744;10.580;2023-04-08T03:46:10;3.80;99.90
4279;DHT22;2153;47.744;10.580;2023-04-08T03:48:36;3.80;99.90
4279;DHT22;2153;47.744;10.580;2023-04-08T03:51:03;3.70;99.90
4279;DHT22;2153;47.744;10.580;2023-04-08T03:53:30;3.70;99.90
4279;DHT22;2153;47.744;10.580;2023-04-08T03:55:56;3.70;99.90
4279;DHT22;2153;47.744;10.580;2023-04-08T03:58:23;3.80;99.90
4279;DHT22;2153;47.744;10.580;2023-04-08T04:00:51;3.80;99.90
4279;DHT22;2153;47.744;10.580;2023-04-08T04:03:18;3.80;99.90
4279;DHT22;2153;47.744;10.580;2023-04-08T04:05:45;3.80;99.90
4279;DHT22;2153;47.744;10.580;2023-04-08T04:08:11;3.80;99.90
4279;DHT22;2153;47.744;10.580;2023-04-08T04:10:38;3.80;99.90
4279;DHT22;2153;47.744;10.580;2023-04-08T04:13:05;3.80;99.90
4279;DHT22;2153;47.744;10.580;2023-04-08T04:15:31;3.80;99.90
4279;DHT22;2153;47.744;10.580;2023-04-08T04:17:59;3.80;99.90
4279;DHT22;2153;47.744;10.580;2023-04-08T04:20:26;3.80;99.90
4279;DHT22;2153;47.744;10.580;2023-04-08T04:22:54;3.90;99.90
4279;DHT22;2153;47.744;10.580;2023-04-08T04:25:21;3.80;99.90
4279;DHT22;2153;47.744;10.580;2023-04-08T04:27:48;3.80;99.90
4279;DHT22;2153;47.744;10.580;2023-04-08T04:30:15;3.80;99.90
4279;DHT22;2153;47.744;10.580;2023-04-08T04:32:44;3.80;99.90
4279;DHT22;2153;47.744;10.580;2023-04-08T04:35:12;3.80;99.90
4279;DHT22;2153;47.744;10.580;2023-04-08T04:37:39;3.80;99.90
4279;DHT22;2153;47.744;10.580;2023-04-08T04:40:06;3.80;99.90
4279;DHT22;2153;47.744;10.580;2023-04-08T04:42:33;3.80;99.90
4279;DHT22;2153;47.744;10.580;2023-04-08T04:45:00;3.80;99.90
4279;DHT22;2153;47.744;10.580;2023-04-08T04:47:27;3.80;99.90
4279;DHT22;2153;47.744;10.580;2023-04-08T04:49:53;3.80;99.90
4279;DHT22;2153;47.744;10.580;2023-04-08T04:52:22;3.80;99.90
4279;DHT22;2153;47.744;10.580;2023-04-08T04:54:48;3.70;99.90
4279;DHT22;2153;47.744;10.580;2023-04-08T04:57:15;3.70;99.90
4279;DHT22;2153;47.744;10.580;2023-04-08T04:59:42;3.70;99.90
4279;DHT22;2153;47.744;10.580;2023-04-08T05:02:08;3.70;99.90
4279;DHT22;2153;47.744;10.580;2023-04-08T05:04:35;3.70;99.90
4279;DHT22;2153;47.744;10.580;2023-04-08T05:07:02;3.70;99.90
4279;DHT22;2153;47.744;10.580;2023-04-08T05:09:30;3.70;99.90
4279;DHT22;2153;47.744;10.580;2023-04-08T05:11:57;3.70;99.90
4279;DHT22;2153;47.744;10.580;2023-04-08T05:14:24;3.80;99.90
4279;DHT22;2153;47.744;10.580;2023-04-08T05:16:50;3.80;99.90
4279;DHT22;2153;47.744;10.580;2023-04-08T05:19:17;3.80;99.90
4279;DHT22;2153;47.744;10.580;2023-04-08T05:21:44;3.80;99.90
4279;DHT22;2153;47.744;10.580;2023-04-08T05:24:10;3.90;99.90
4279;DHT22;2153;47.744;10.580;2023-04-08T05:26:38;3.90;99.90
4279;DHT22;2153;47.744;10.580;2023-04-08T05:29:05;3.90;99.90
4279;DHT22;2153;47.744;10.580;2023-04-08T05:31:32;3.90;99.90
4279;DHT22;2153;47.744;10.580;2023-04-08T05:33:59;3.90;99.90
4279;DHT22;2153;47.744;10.580;2023-04-08T05:36:25;3.90;99.90
4279;DHT22;2153;47.744;10.580;2023-04-08T05:38:53;3.90;99.90
4279;DHT22;2153;47.744;10.580;2023-04-08T05:41:20;3.90;99.90
4279;DHT22;2153;47.744;10.580;2023-04-08T05:43:48;3.90;99.90
4279;DHT22;2153;47.744;10.580;2023-04-08T05:46:14;3.90;99.90
4279;DHT22;2153;47.744;10.580;2023-04-08T05:48:41;3.90;99.90
4279;DHT22;2153;47.744;10.580;2023-04-08T05:51:12;3.90;99.90
4279;DHT22;2153;47.744;10.580;2023-04-08T05:53:39;3.90;99.90
4279;DHT22;2153;47.744;10.580;2023-04-08T05:56:06;4.00;99.90
4279;DHT22;2153;47.744;10.580;2023-04-08T05:58:33;3.90;99.90
4279;DHT22;2153;47.744;10.580;2023-04-08T06:01:01;3.80;99.90
4279;DHT22;2153;47.744;10.580;2023-04-08T06:03:29;3.90;99.90
4279;DHT22;2153;47.744;10.580;2023-04-08T06:05:56;3.90;99.90
4279;DHT22;2153;47.744;10.580;2023-04-08T06:08:23;4.00;99.90
4279;DHT22;2153;47.744;10.580;2023-04-08T06:10:50;4.00;99.90
4279;DHT22;2153;47.744;10.580;2023-04-08T06:13:17;4.00;99.90
4279;DHT22;2153;47.744;10.580;2023-04-08T06:15:45;4.00;99.90
4279;DHT22;2153;47.744;10.580;2023-04-08T06:18:14;4.00;99.90
4279;DHT22;2153;47.744;10.580;2023-04-08T06:20:41;4.00;99.90
4279;DHT22;2153;47.744;10.580;2023-04-08T06:23:08;4.00;99.90
4279;DHT22;2153;47.744;10.580;2023-04-08T06:25:35;4.10;99.90
4279;DHT22;2153;47.744;10.580;2023-04-08T06:28:01;4.10;99.90
4279;DHT22;2153;47.744;10.580;2023-04-08T06:30:28;4.20;99.90
4279;DHT22;2153;47.744;10.580;2023-04-08T06:32:55;4.30;99.90
4279;DHT22;2153;47.744;10.580;2023-04-08T06:35:23;4.30;99.90
4279;DHT22;2153;47.744;10.580;2023-04-08T06:37:50;4.40;99.90
4279;DHT22;2153;47.744;10.580;2023-04-08T06:40:17;4.40;99.90
4279;DHT22;2153;47.744;10.580;2023-04-08T06:42:43;4.50;99.90
4279;DHT22;2153;47.744;10.580;2023-04-08T06:45:10;4.50;99.90
4279;DHT22;2153;47.744;10.580;2023-04-08T06:47:37;4.60;99.90
4279;DHT22;2153;47.744;10.580;2023-04-08T06:50:05;4.60;99.90
4279;DHT22;2153;47.744;10.580;2023-04-08T06:52:33;4.60;99.90
4279;DHT22;2153;47.744;10.580;2023-04-08T06:55:00;4.70;99.90
4279;DHT22;2153;47.744;10.580;2023-04-08T06:57:26;4.80;99.90
4279;DHT22;2153;47.744;10.580;2023-04-08T06:59:53;4.70;99.90
4279;DHT22;2153;47.744;10.580;2023-04-08T07:02:20;4.80;99.90
4279;DHT22;2153;47.744;10.580;2023-04-08T07:04:47;4.80;99.90
4279;DHT22;2153;47.744;10.580;2023-04-08T07:07:14;4.90;99.90
4279;DHT22;2153;47.744;10.580;2023-04-08T07:09:42;4.90;99.90
4279;DHT22;2153;47.744;10.580;2023-04-08T07:12:10;4.90;99.90
4279;DHT22;2153;47.744;10.580;2023-04-08T07:14:37;5.00;99.90
4279;DHT22;2153;47.744;10.580;2023-04-08T07:17:03;5.10;99.90
4279;DHT22;2153;47.744;10.580;2023-04-08T07:19:31;5.10;99.90
4279;DHT22;2153;47.744;10.580;2023-04-08T07:21:57;5.10;99.90
4279;DHT22;2153;47.744;10.580;2023-04-08T07:24:24;5.20;99.90
4279;DHT22;2153;47.744;10.580;2023-04-08T07:26:53;5.30;99.90
4279;DHT22;2153;47.744;10.580;2023-04-08T07:29:21;5.30;99.90
4279;DHT22;2153;47.744;10.580;2023-04-08T07:31:47;5.40;99.90
4279;DHT22;2153;47.744;10.580;2023-04-08T07:34:14;5.40;99.90
4279;DHT22;2153;47.744;10.580;2023-04-08T07:36:41;5.40;99.90
4279;DHT22;2153;47.744;10.580;2023-04-08T07:39:08;5.40;99.90
4279;DHT22;2153;47.744;10.580;2023-04-08T07:41:34;5.30;99.90
4279;DHT22;2153;47.744;10.580;2023-04-08T07:44:02;5.30;99.90
4279;DHT22;2153;47.744;10.580;2023-04-08T07:46:30;5.30;99.90
4279;DHT22;2153;47.744;10.580;2023-04-08T07:48:58;5.30;99.90
4279;DHT22;2153;47.744;10.580;2023-04-08T07:51:25;5.20;99.90
4279;DHT22;2153;47.744;10.580;2023-04-08T07:53:52;5.20;99.90
4279;DHT22;2153;47.744;10.580;2023-04-08T07:56:18;5.20;99.90
4279;DHT22;2153;47.744;10.580;2023-04-08T07:58:46;5.10;99.90
4279;DHT22;2153;47.744;10.580;2023-04-08T08:01:17;5.10;99.90
4279;DHT22;2153;47.744;10.580;2023-04-08T08:03:44;5.10;99.90
4279;DHT22;2153;47.744;10.580;2023-04-08T08:06:11;5.20;99.90
4279;DHT22;2153;47.744;10.580;2023-04-08T08:08:38;5.30;99.90
4279;DHT22;2153;47.744;10.580;2023-04-08T08:11:05;5.40;99.90
4279;DHT22;2153;47.744;10.580;2023-04-08T08:13:32;5.40;99.90
4279;DHT22;2153;47.744;10.580;2023-04-08T08:15:59;5.50;99.90
4279;DHT22;2153;47.744;10.580;2023-04-08T08:18:27;5.60;99.90
4279;DHT22;2153;47.744;10.580;2023-04-08T08:20:54;5.60;99.90
4279;DHT22;2153;47.744;10.580;2023-04-08T08:23:21;5.70;99.90
4279;DHT22;2153;47.744;10.580;2023-04-08T08:25:47;5.80;99.90
4279;DHT22;2153;47.744;10.580;2023-04-08T08:28:14;5.90;99.90
4279;DHT22;2153;47.744;10.580;2023-04-08T08:30:41;6.00;99.90
4279;DHT22;2153;47.744;10.580;2023-04-08T08:33:08;6.00;99.90
4279;DHT22;2153;47.744;10.580;2023-04-08T08:35:36;5.80;99.90
4279;DHT22;2153;47.744;10.580;2023-04-08T08:38:03;5.70;99.90
4279;DHT22;2153;47.744;10.580;2023-04-08T08:40:29;5.60;99.90
4279;DHT22;2153;47.744;10.580;2023-04-08T08:42:56;5.50;99.90
4279;DHT22;2153;47.744;10.580;2023-04-08T08:45:23;5.50;99.90
4279;DHT22;2153;47.744;10.580;2023-04-08T08:47:50;5.50;99.90
4279;DHT22;2153;47.744;10.580;2023-04-08T08:50:17;5.50;99.90
4279;DHT22;2153;47.744;10.580;2023-04-08T08:52:49;5.50;99.90
4279;DHT22;2153;47.744;10.580;2023-04-08T08:55:17;5.50;99.90
4279;DHT22;2153;47.744;10.580;2023-04-08T08:57:44;5.50;99.90
4279;DHT22;2153;47.744;10.580;2023-04-08T09:00:11;5.50;99.90
4279;DHT22;2153;47.744;10.580;2023-04-08T09:02:40;5.60;99.90
4279;DHT22;2153;47.744;10.580;2023-04-08T09:05:07;5.70;99.90
4279;DHT22;2153;47.744;10.580;2023-04-08T09:07:35;5.80;99.90
4279;DHT22;2153;47.744;10.580;2023-04-08T09:10:07;6.00;99.90
4279;DHT22;2153;47.744;10.580;2023-04-08T09:12:35;6.10;99.90
4279;DHT22;2153;47.744;10.580;2023-04-08T09:15:18;6.20;99.90
4279;DHT22;2153;47.744;10.580;2023-04-08T09:17:45;6.20;99.90
4279;DHT22;2153;47.744;10.580;2023-04-08T09:20:12;6.30;99.90
4279;DHT22;2153;47.744;10.580;2023-04-08T09:22:56;6.30;99.90
4279;DHT22;2153;47.744;10.580;2023-04-08T09:25:26;6.20;99.90
4279;DHT22;2153;47.744;10.580;2023-04-08T09:27:53;6.20;99.90
4279;DHT22;2153;47.744;10.580;2023-04-08T09:30:22;6.20;99.90
4279;DHT22;2153;47.744;10.580;2023-04-08T09:32:50;6.20;99.90
4279;DHT22;2153;47.744;10.580;2023-04-08T09:35:17;6.30;99.90
4279;DHT22;2153;47.744;10.580;2023-04-08T09:37:45;6.10;99.90
4279;DHT22;2153;47.744;10.580;2023-04-08T09:40:12;6.10;99.90
4279;DHT22;2153;47.744;10.580;2023-04-08T09:42:44;6.20;99.90
4279;DHT22;2153;47.744;10.580;2023-04-08T09:45:13;6.40;99.90
4279;DHT22;2153;47.744;10.580;2023-04-08T09:47:47;6.40;99.90
4279;DHT22;2153;47.744;10.580;2023-04-08T09:50:19;6.50;99.90
4279;DHT22;2153;47.744;10.580;2023-04-08T09:52:52;6.50;99.90
4279;DHT22;2153;47.744;10.580;2023-04-08T09:55:21;6.50;99.90
4279;DHT22;2153;47.744;10.580;2023-04-08T09:57:54;6.40;99.90
4279;DHT22;2153;47.744;10.580;2023-04-08T10:00:27;6.40;99.90
4279;DHT22;2153;47.744;10.580;2023-04-08T10:03:01;6.30;99.90
4279;DHT22;2153;47.744;10.580;2023-04-08T10:05:30;6.30;99.90
4279;DHT22;2153;47.744;10.580;2023-04-08T10:07:57;6.20;99.90
4279;DHT22;2153;47.744;10.580;2023-04-08T10:10:24;6.20;99.90
4279;DHT22;2153;47.744;10.580;2023-04-08T10:12:53;6.10;99.90
4279;DHT22;2153;47.744;10.580;2023-04-08T10:15:26;6.00;99.90
4279;DHT22;2153;47.744;10.580;2023-04-08T10:17:54;6.00;99.90
4279;DHT22;2153;47.744;10.580;2023-04-08T10:20:41;6.00;99.90
4279;DHT22;2153;47.744;10.580;2023-04-08T10:23:10;5.70;99.90
4279;DHT22;2153;47.744;10.580;2023-04-08T10:25:38;5.60;99.90
4279;DHT22;2153;47.744;10.580;2023-04-08T10:28:24;5.50;99.90
4279;DHT22;2153;47.744;10.580;2023-04-08T10:30:52;5.40;99.90
4279;DHT22;2153;47.744;10.580;2023-04-08T10:33:21;5.40;99.90
4279;DHT22;2153;47.744;10.580;2023-04-08T10:35:56;5.40;99.90
4279;DHT22;2153;47.744;10.580;2023-04-08T10:38:25;5.40;99.90
4279;DHT22;2153;47.744;10.580;2023-04-08T10:40:53;5.40;99.90
4279;DHT22;2153;47.744;10.580;2023-04-08T10:43:20;5.40;99.90
4279;DHT22;2153;47.744;10.580;2023-04-08T10:45:52;5.40;99.90
4279;DHT22;2153;47.744;10.580;2023-04-08T10:48:20;5.40;99.90
4279;DHT22;2153;47.744;10.580;2023-04-08T10:50:52;5.30;99.90
4279;DHT22;2153;47.744;10.580;2023-04-08T10:53:26;5.30;99.90
4279;DHT22;2153;47.744;10.580;2023-04-08T10:55:53;5.30;99.90
4279;DHT22;2153;47.744;10.580;2023-04-08T10:58:20;5.30;99.90
4279;DHT22;2153;47.744;10.580;2023-04-08T11:00:47;5.40;99.90
4279;DHT22;2153;47.744;10.580;2023-04-08T11:03:15;5.40;99.90
4279;DHT22;2153;47.744;10.580;2023-04-08T11:05:42;5.50;99.90
4279;DHT22;2153;47.744;10.580;2023-04-08T11:08:08;5.60;99.90
4279;DHT22;2153;47.744;10.580;2023-04-08T11:10:36;5.60;99.90
4279;DHT22;2153;47.744;10.580;2023-04-08T11:13:06;5.70;99.90
4279;DHT22;2153;47.744;10.580;2023-04-08T11:15:35;5.50;99.90
4279;DHT22;2153;47.744;10.580;2023-04-08T11:18:02;5.40;99.90
4279;DHT22;2153;47.744;10.580;2023-04-08T11:20:31;5.30;99.90
4279;DHT22;2153;47.744;10.580;2023-04-08T11:22:59;5.30;99.90
4279;DHT22;2153;47.744;10.580;2023-04-08T11:25:25;5.40;99.90
4279;DHT22;2153;47.744;10.580;2023-04-08T11:27:52;5.30;99.90
4279;DHT22;2153;47.744;10.580;2023-04-08T11:30:20;5.40;99.90
4279;DHT22;2153;47.744;10.580;2023-04-08T11:32:48;5.40;99.90
4279;DHT22;2153;47.744;10.580;2023-04-08T11:35:16;5.30;99.90
4279;DHT22;2153;47.744;10.580;2023-04-08T11:37:44;5.40;99.90
4279;DHT22;2153;47.744;10.580;2023-04-08T11:40:19;5.40;99.90
4279;DHT22;2153;47.744;10.580;2023-04-08T11:42:46;5.50;99.90
4279;DHT22;2153;47.744;10.580;2023-04-08T11:45:15;5.40;99.90
4279;DHT22;2153;47.744;10.580;2023-04-08T11:47:42;5.40;99.90
4279;DHT22;2153;47.744;10.580;2023-04-08T11:50:10;5.50;99.90
4279;DHT22;2153;47.744;10.580;2023-04-08T11:52:41;5.50;99.90
4279;DHT22;2153;47.744;10.580;2023-04-08T11:55:10;5.50;99.90
4279;DHT22;2153;47.744;10.580;2023-04-08T11:57:37;5.60;99.90
4279;DHT22;2153;47.744;10.580;2023-04-08T12:00:05;5.50;99.90
4279;DHT22;2153;47.744;10.580;2023-04-08T12:02:32;5.50;99.90
4279;DHT22;2153;47.744;10.580;2023-04-08T12:04:59;5.40;99.90
4279;DHT22;2153;47.744;10.580;2023-04-08T12:07:25;5.40;99.90
4279;DHT22;2153;47.744;10.580;2023-04-08T12:09:52;5.40;99.90
4279;DHT22;2153;47.744;10.580;2023-04-08T12:12:20;5.50;99.90
4279;DHT22;2153;47.744;10.580;2023-04-08T12:14:47;5.50;99.90
4279;DHT22;2153;47.744;10.580;2023-04-08T12:17:14;5.60;99.90
4279;DHT22;2153;47.744;10.580;2023-04-08T12:19:41;5.70;99.90
4279;DHT22;2153;47.744;10.580;2023-04-08T12:22:07;5.80;99.90
4279;DHT22;2153;47.744;10.580;2023-04-08T12:24:34;5.80;99.90
4279;DHT22;2153;47.744;10.580;2023-04-08T12:27:01;5.90;99.90
4279;DHT22;2153;47.744;10.580;2023-04-08T12:29:30;5.90;99.90
4279;DHT22;2153;47.744;10.580;2023-04-08T12:31:57;5.80;99.90
4279;DHT22;2153;47.744;10.580;2023-04-08T12:34:24;5.80;99.90
4279;DHT22;2153;47.744;10.580;2023-04-08T12:36:51;5.90;99.90
4279;DHT22;2153;47.744;10.580;2023-04-08T12:39:17;6.00;99.90
4279;DHT22;2153;47.744;10.580;2023-04-08T12:41:44;6.10;99.90
4279;DHT22;2153;47.744;10.580;2023-04-08T12:44:11;6.10;99.90
4279;DHT22;2153;47.744;10.580;2023-04-08T12:46:39;6.30;99.90
4279;DHT22;2153;47.744;10.580;2023-04-08T12:49:06;6.30;99.90
4279;DHT22;2153;47.744;10.580;2023-04-08T12:51:33;6.40;99.90
4279;DHT22;2153;47.744;10.580;2023-04-08T12:54:00;6.50;99.90
4279;DHT22;2153;47.744;10.580;2023-04-08T12:56:28;6.40;99.90
4279;DHT22;2153;47.744;10.580;2023-04-08T12:58:54;6.50;99.90
4279;DHT22;2153;47.744;10.580;2023-04-08T13:01:22;6.50;99.90
4279;DHT22;2153;47.744;10.580;2023-04-08T13:03:50;6.60;99.90
4279;DHT22;2153;47.744;10.580;2023-04-08T13:06:17;6.40;99.90
4279;DHT22;2153;47.744;10.580;2023-04-08T13:08:44;6.50;99.90
4279;DHT22;2153;47.744;10.580;2023-04-08T13:11:11;6.60;99.90
4279;DHT22;2153;47.744;10.580;2023-04-08T13:13:38;6.50;99.90
4279;DHT22;2153;47.744;10.580;2023-04-08T13:16:05;6.60;99.90
4279;DHT22;2153;47.744;10.580;2023-04-08T13:18:32;6.70;99.90
4279;DHT22;2153;47.744;10.580;2023-04-08T13:21:00;6.70;99.90
4279;DHT22;2153;47.744;10.580;2023-04-08T13:23:27;6.70;99.90
4279;DHT22;2153;47.744;10.580;2023-04-08T13:25:53;6.70;99.90
4279;DHT22;2153;47.744;10.580;2023-04-08T13:28:20;6.80;99.90
4279;DHT22;2153;47.744;10.580;2023-04-08T13:30:47;6.90;99.90
4279;DHT22;2153;47.744;10.580;2023-04-08T13:33:14;7.10;99.90
4279;DHT22;2153;47.744;10.580;2023-04-08T13:35:40;7.00;99.90
4279;DHT22;2153;47.744;10.580;2023-04-08T13:38:09;6.80;99.90
4279;DHT22;2153;47.744;10.580;2023-04-08T13:40:35;6.90;99.90
4279;DHT22;2153;47.744;10.580;2023-04-08T13:43:02;6.90;99.90
4279;DHT22;2153;47.744;10.580;2023-04-08T13:45:29;6.90;99.90
4279;DHT22;2153;47.744;10.580;2023-04-08T13:47:56;6.80;99.90
4279;DHT22;2153;47.744;10.580;2023-04-08T13:50:24;6.70;99.90
4279;DHT22;2153;47.744;10.580;2023-04-08T13:52:51;6.50;99.90
4279;DHT22;2153;47.744;10.580;2023-04-08T13:55:19;6.40;99.90
4279;DHT22;2153;47.744;10.580;2023-04-08T13:57:46;6.40;99.90
4279;DHT22;2153;47.744;10.580;2023-04-08T14:00:13;6.30;99.90
4279;DHT22;2153;47.744;10.580;2023-04-08T14:02:40;6.10;99.90
4279;DHT22;2153;47.744;10.580;2023-04-08T14:05:07;6.10;99.90
4279;DHT22;2153;47.744;10.580;2023-04-08T14:07:34;6.00;99.90
4279;DHT22;2153;47.744;10.580;2023-04-08T14:10:01;6.00;99.90
4279;DHT22;2153;47.744;10.580;2023-04-08T14:12:29;5.90;99.90
4279;DHT22;2153;47.744;10.580;2023-04-08T14:14:55;5.90;99.90
4279;DHT22;2153;47.744;10.580;2023-04-08T14:17:22;6.00;99.90
4279;DHT22;2153;47.744;10.580;2023-04-08T14:19:49;6.00;99.90
4279;DHT22;2153;47.744;10.580;2023-04-08T14:22:16;6.00;99.90
4279;DHT22;2153;47.744;10.580;2023-04-08T14:24:43;5.90;99.90
4279;DHT22;2153;47.744;10.580;2023-04-08T14:27:10;6.00;99.90
4279;DHT22;2153;47.744;10.580;2023-04-08T14:29:38;5.90;99.90
4279;DHT22;2153;47.744;10.580;2023-04-08T14:32:05;5.80;99.90
4279;DHT22;2153;47.744;10.580;2023-04-08T14:34:32;5.80;99.90
4279;DHT22;2153;47.744;10.580;2023-04-08T14:36:58;5.80;99.90
4279;DHT22;2153;47.744;10.580;2023-04-08T14:39:25;5.80;99.90
4279;DHT22;2153;47.744;10.580;2023-04-08T14:41:52;5.90;99.90
4279;DHT22;2153;47.744;10.580;2023-04-08T14:44:19;5.80;99.90
4279;DHT22;2153;47.744;10.580;2023-04-08T14:46:47;5.80;99.90
4279;DHT22;2153;47.744;10.580;2023-04-08T14:49:14;5.80;99.90
4279;DHT22;2153;47.744;10.580;2023-04-08T14:51:40;5.80;99.90
4279;DHT22;2153;47.744;10.580;2023-04-08T14:54:07;5.80;99.90
4279;DHT22;2153;47.744;10.580;2023-04-08T14:56:34;5.70;99.90
4279;DHT22;2153;47.744;10.580;2023-04-08T14:59:01;5.70;99.90
4279;DHT22;2153;47.744;10.580;2023-04-08T15:01:28;5.70;99.90
4279;DHT22;2153;47.744;10.580;2023-04-08T15:03:57;5.60;99.90
4279;DHT22;2153;47.744;10.580;2023-04-08T15:06:24;5.60;99.90
4279;DHT22;2153;47.744;10.580;2023-04-08T15:08:52;5.60;99.90
4279;DHT22;2153;47.744;10.580;2023-04-08T15:11:18;5.60;99.90
4279;DHT22;2153;47.744;10.580;2023-04-08T15:13:46;5.60;99.90
4279;DHT22;2153;47.744;10.580;2023-04-08T15:16:13;5.60;99.90
4279;DHT22;2153;47.744;10.580;2023-04-08T15:18:40;5.60;99.90
4279;DHT22;2153;47.744;10.580;2023-04-08T15:21:08;5.60;99.90
4279;DHT22;2153;47.744;10.580;2023-04-08T15:23:34;5.60;99.90
4279;DHT22;2153;47.744;10.580;2023-04-08T15:26:06;5.50;99.90
4279;DHT22;2153;47.744;10.580;2023-04-08T15:28:33;5.50;99.90
4279;DHT22;2153;47.744;10.580;2023-04-08T15:31:03;5.50;99.90
4279;DHT22;2153;47.744;10.580;2023-04-08T15:33:30;5.50;99.90
4279;DHT22;2153;47.744;10.580;2023-04-08T15:35:58;5.40;99.90
4279;DHT22;2153;47.744;10.580;2023-04-08T15:38:29;5.40;99.90
4279;DHT22;2153;47.744;10.580;2023-04-08T15:40:57;5.30;99.90
4279;DHT22;2153;47.744;10.580;2023-04-08T15:43:24;5.30;99.90
4279;DHT22;2153;47.744;10.580;2023-04-08T15:45:51;5.20;99.90
4279;DHT22;2153;47.744;10.580;2023-04-08T15:48:18;5.20;99.90
4279;DHT22;2153;47.744;10.580;2023-04-08T15:50:45;5.10;99.90
4279;DHT22;2153;47.744;10.580;2023-04-08T15:53:11;5.10;99.90
4279;DHT22;2153;47.744;10.580;2023-04-08T15:55:40;5.00;99.90
4279;DHT22;2153;47.744;10.580;2023-04-08T15:58:07;4.90;99.90
4279;DHT22;2153;47.744;10.580;2023-04-08T16:00:34;4.80;99.90
4279;DHT22;2153;47.744;10.580;2023-04-08T16:03:01;4.70;99.90
4279;DHT22;2153;47.744;10.580;2023-04-08T16:05:29;4.60;99.90